sensor_id;sensor_type;location;lat;lon;timestamp;temperature;humidity
79030;DHT22;68511;51.146;7.012;2024-02-23T00:00:27;13.90;61.20
79030;DHT22;68511;51.146;7.012;2024-02-23T00:01:28;13.90;61.20
79030;DHT22;68511;51.146;7.012;2024-02-23T00:02:28;13.90;61.20
79030;DHT22;68511;51.146;7.012;2024-02-23T00:03:29;13.90;61.20
79030;DHT22;68511;51.146;7.012;2024-02-23T00:04:29;13.90;61.20
79030;DHT22;68511;51.146;7.012;2024-02-23T00:05:30;13.90;61.30
79030;DHT22;68511;51.146;7.012;2024-02-23T00:06:30;13.90;61.20
79030;DHT22;68511;51.146;7.012;2024-02-23T00:07:30;13.90;61.20
79030;DHT22;68511;51.146;7.012;2024-02-23T00:08:31;13.90;61.20
79030;DHT22;68511;51.146;7.012;2024-02-23T00:09:31;13.90;61.20
79030;DHT22;68511;51.146;7.012;2024-02-23T00:10:32;13.90;61.20
79030;DHT22;68511;51.146;7.012;2024-02-23T00:11:32;13.90;61.20
79030;DHT22;68511;51.146;7.012;2024-02-23T00:12:33;13.90;61.20
79030;DHT22;68511;51.146;7.012;2024-02-23T00:13:34;13.90;61.20
79030;DHT22;68511;51.146;7.012;2024-02-23T00:14:34;13.90;61.20
79030;DHT22;68511;51.146;7.012;2024-02-23T00:15:37;13.90;61.20
79030;DHT22;68511;51.146;7.012;2024-02-23T00:16:41;13.90;61.20
79030;DHT22;68511;51.146;7.012;2024-02-23T00:17:41;13.90;61.20
79030;DHT22;68511;51.146;7.012;2024-02-23T00:18:42;13.90;61.20
79030;DHT22;68511;51.146;7.012;2024-02-23T00:19:44;13.90;61.20
79030;DHT22;68511;51.146;7.012;2024-02-23T00:20:46;13.90;61.20
79030;DHT22;68511;51.146;7.012;2024-02-23T00:21:46;13.90;61.20
79030;DHT22;68511;51.146;7.012;2024-02-23T00:22:50;13.90;61.20
79030;DHT22;68511;51.146;7.012;2024-02-23T00:23:51;13.90;61.20
79030;DHT22;68511;51.146;7.012;2024-02-23T00:24:51;13.90;61.20
79030;DHT22;68511;51.146;7.012;2024-02-23T00:25:52;13.90;61.20
79030;DHT22;68511;51.146;7.012;2024-02-23T00:26:52;13.90;61.30
79030;DHT22;68511;51.146;7.012;2024-02-23T00:27:53;13.90;61.20
79030;DHT22;68511;51.146;7.012;2024-02-23T00:28:53;13.90;61.30
79030;DHT22;68511;51.146;7.012;2024-02-23T00:29:53;13.80;61.20
79030;DHT22;68511;51.146;7.012;2024-02-23T00:30:54;13.90;61.20
79030;DHT22;68511;51.146;7.012;2024-02-23T00:31:54;13.90;61.30
79030;DHT22;68511;51.146;7.012;2024-02-23T00:32:55;13.90;61.20
79030;DHT22;68511;51.146;7.012;2024-02-23T00:33:56;13.90;61.20
79030;DHT22;68511;51.146;7.012;2024-02-23T00:34:56;13.90;61.20
79030;DHT22;68511;51.146;7.012;2024-02-23T00:35:57;13.90;61.30
79030;DHT22;68511;51.146;7.012;2024-02-23T00:36:57;13.90;61.30
79030;DHT22;68511;51.146;7.012;2024-02-23T00:37:58;13.80;61.10
79030;DHT22;68511;51.146;7.012;2024-02-23T00:38:58;13.80;61.10
79030;DHT22;68511;51.146;7.012;2024-02-23T00:39:59;13.90;61.20
79030;DHT22;68511;51.146;7.012;2024-02-23T00:40:59;13.90;61.20
79030;DHT22;68511;51.146;7.012;2024-02-23T00:41:59;13.90;61.20
79030;DHT22;68511;51.146;7.012;2024-02-23T00:43:00;13.90;61.20
79030;DHT22;68511;51.146;7.012;2024-02-23T00:44:01;13.90;61.20
79030;DHT22;68511;51.146;7.012;2024-02-23T00:45:02;13.90;61.20
79030;DHT22;68511;51.146;7.012;2024-02-23T00:46:03;13.90;61.10
79030;DHT22;68511;51.146;7.012;2024-02-23T00:47:04;13.90;61.10
79030;DHT22;68511;51.146;7.012;2024-02-23T00:48:05;13.90;61.10
79030;DHT22;68511;51.146;7.012;2024-02-23T00:49:06;13.90;61.10
79030;DHT22;68511;51.146;7.012;2024-02-23T00:50:07;13.80;61.00
79030;DHT22;68511;51.146;7.012;2024-02-23T00:51:07;13.80;61.10
79030;DHT22;68511;51.146;7.012;2024-02-23T00:52:08;13.80;61.10
79030;DHT22;68511;51.146;7.012;2024-02-23T00:53:08;13.90;61.20
79030;DHT22;68511;51.146;7.012;2024-02-23T00:54:09;13.90;61.20
79030;DHT22;68511;51.146;7.012;2024-02-23T00:55:09;13.90;61.20
79030;DHT22;68511;51.146;7.012;2024-02-23T00:56:10;13.90;61.20
79030;DHT22;68511;51.146;7.012;2024-02-23T00:57:11;13.90;61.20
79030;DHT22;68511;51.146;7.012;2024-02-23T00:58:11;13.90;61.20
79030;DHT22;68511;51.146;7.012;2024-02-23T00:59:11;13.90;61.20
79030;DHT22;68511;51.146;7.012;2024-02-23T01:00:12;13.90;61.20
79030;DHT22;68511;51.146;7.012;2024-02-23T01:01:13;13.90;61.20
79030;DHT22;68511;51.146;7.012;2024-02-23T01:02:13;13.90;61.20
79030;DHT22;68511;51.146;7.012;2024-02-23T01:03:13;13.80;61.10
79030;DHT22;68511;51.146;7.012;2024-02-23T01:04:14;13.90;61.20
79030;DHT22;68511;51.146;7.012;2024-02-23T01:05:14;13.90;61.20
79030;DHT22;68511;51.146;7.012;2024-02-23T01:06:15;13.80;61.10
79030;DHT22;68511;51.146;7.012;2024-02-23T01:07:17;13.90;61.20
79030;DHT22;68511;51.146;7.012;2024-02-23T01:08:17;13.80;61.10
79030;DHT22;68511;51.146;7.012;2024-02-23T01:09:18;13.80;61.10
79030;DHT22;68511;51.146;7.012;2024-02-23T01:10:20;13.90;61.20
79030;DHT22;68511;51.146;7.012;2024-02-23T01:11:21;13.80;61.10
79030;DHT22;68511;51.146;7.012;2024-02-23T01:12:21;13.80;61.10
79030;DHT22;68511;51.146;7.012;2024-02-23T01:13:22;13.90;61.20
79030;DHT22;68511;51.146;7.012;2024-02-23T01:14:22;13.90;61.20
79030;DHT22;68511;51.146;7.012;2024-02-23T01:15:23;13.90;61.20
79030;DHT22;68511;51.146;7.012;2024-02-23T01:16:23;13.90;61.20
79030;DHT22;68511;51.146;7.012;2024-02-23T01:17:24;13.90;61.20
79030;DHT22;68511;51.146;7.012;2024-02-23T01:18:24;13.80;61.10
79030;DHT22;68511;51.146;7.012;2024-02-23T01:19:25;13.90;61.20
79030;DHT22;68511;51.146;7.012;2024-02-23T01:20:25;13.90;61.20
79030;DHT22;68511;51.146;7.012;2024-02-23T01:21:26;13.90;61.20
79030;DHT22;68511;51.146;7.012;2024-02-23T01:22:26;13.90;61.20
79030;DHT22;68511;51.146;7.012;2024-02-23T01:23:28;13.80;61.10
79030;DHT22;68511;51.146;7.012;2024-02-23T01:24:28;13.90;61.20
79030;DHT22;68511;51.146;7.012;2024-02-23T01:25:29;13.80;61.00
79030;DHT22;68511;51.146;7.012;2024-02-23T01:26:29;13.90;61.20
79030;DHT22;68511;51.146;7.012;2024-02-23T01:27:30;13.90;61.10
79030;DHT22;68511;51.146;7.012;2024-02-23T01:28:30;13.90;61.10
79030;DHT22;68511;51.146;7.012;2024-02-23T01:29:31;13.80;61.00
79030;DHT22;68511;51.146;7.012;2024-02-23T01:30:31;13.90;61.10
79030;DHT22;68511;51.146;7.012;2024-02-23T01:31:32;13.80;61.00
79030;DHT22;68511;51.146;7.012;2024-02-23T01:32:32;13.80;61.10
79030;DHT22;68511;51.146;7.012;2024-02-23T01:33:33;13.80;61.10
79030;DHT22;68511;51.146;7.012;2024-02-23T01:34:33;13.80;61.00
79030;DHT22;68511;51.146;7.012;2024-02-23T01:35:34;13.80;61.00
79030;DHT22;68511;51.146;7.012;2024-02-23T01:36:36;13.80;61.10
79030;DHT22;68511;51.146;7.012;2024-02-23T01:37:37;13.80;61.10
79030;DHT22;68511;51.146;7.012;2024-02-23T01:38:37;13.80;61.10
79030;DHT22;68511;51.146;7.012;2024-02-23T01:39:38;13.80;61.10
79030;DHT22;68511;51.146;7.012;2024-02-23T01:40:39;13.80;61.10
79030;DHT22;68511;51.146;7.012;2024-02-23T01:41:39;13.80;61.10
79030;DHT22;68511;51.146;7.012;2024-02-23T01:42:40;13.90;61.20
79030;DHT22;68511;51.146;7.012;2024-02-23T01:43:40;13.90;61.20
79030;DHT22;68511;51.146;7.012;2024-02-23T01:44:41;13.90;61.10
79030;DHT22;68511;51.146;7.012;2024-02-23T01:45:41;13.80;61.10
79030;DHT22;68511;51.146;7.012;2024-02-23T01:46:42;13.90;61.20
79030;DHT22;68511;51.146;7.012;2024-02-23T01:47:42;13.80;61.10
79030;DHT22;68511;51.146;7.012;2024-02-23T01:48:42;13.90;61.10
79030;DHT22;68511;51.146;7.012;2024-02-23T01:49:43;13.80;61.00
79030;DHT22;68511;51.146;7.012;2024-02-23T01:50:45;13.90;61.10
79030;DHT22;68511;51.146;7.012;2024-02-23T01:51:45;13.90;61.10
79030;DHT22;68511;51.146;7.012;2024-02-23T01:52:46;13.90;61.00
79030;DHT22;68511;51.146;7.012;2024-02-23T01:53:46;13.80;60.90
79030;DHT22;68511;51.146;7.012;2024-02-23T01:54:47;13.90;61.10
79030;DHT22;68511;51.146;7.012;2024-02-23T01:55:47;13.80;61.00
79030;DHT22;68511;51.146;7.012;2024-02-23T01:56:48;13.90;61.20
79030;DHT22;68511;51.146;7.012;2024-02-23T01:57:48;13.90;61.10
79030;DHT22;68511;51.146;7.012;2024-02-23T01:58:49;13.80;61.00
79030;DHT22;68511;51.146;7.012;2024-02-23T01:59:49;13.80;61.00
79030;DHT22;68511;51.146;7.012;2024-02-23T02:00:50;13.80;61.10
79030;DHT22;68511;51.146;7.012;2024-02-23T02:01:50;13.90;61.10
79030;DHT22;68511;51.146;7.012;2024-02-23T02:02:51;13.90;61.10
79030;DHT22;68511;51.146;7.012;2024-02-23T02:03:51;13.90;61.10
79030;DHT22;68511;51.146;7.012;2024-02-23T02:04:52;13.90;61.10
79030;DHT22;68511;51.146;7.012;2024-02-23T02:05:53;13.90;61.10
79030;DHT22;68511;51.146;7.012;2024-02-23T02:06:53;13.90;61.00
79030;DHT22;68511;51.146;7.012;2024-02-23T02:07:55;13.80;61.00
79030;DHT22;68511;51.146;7.012;2024-02-23T02:08:59;13.80;61.00
79030;DHT22;68511;51.146;7.012;2024-02-23T02:09:59;13.80;61.00
79030;DHT22;68511;51.146;7.012;2024-02-23T02:11:00;13.80;61.00
79030;DHT22;68511;51.146;7.012;2024-02-23T02:12:02;13.80;61.00
79030;DHT22;68511;51.146;7.012;2024-02-23T02:13:03;13.80;61.00
79030;DHT22;68511;51.146;7.012;2024-02-23T02:14:04;13.80;61.00
79030;DHT22;68511;51.146;7.012;2024-02-23T02:15:05;13.80;61.00
79030;DHT22;68511;51.146;7.012;2024-02-23T02:16:05;13.80;61.10
79030;DHT22;68511;51.146;7.012;2024-02-23T02:17:06;13.80;61.10
79030;DHT22;68511;51.146;7.012;2024-02-23T02:18:07;13.80;61.10
79030;DHT22;68511;51.146;7.012;2024-02-23T02:19:07;13.80;61.10
79030;DHT22;68511;51.146;7.012;2024-02-23T02:20:11;13.80;61.00
79030;DHT22;68511;51.146;7.012;2024-02-23T02:21:12;13.80;61.00
79030;DHT22;68511;51.146;7.012;2024-02-23T02:22:13;13.80;61.10
79030;DHT22;68511;51.146;7.012;2024-02-23T02:23:13;13.80;61.10
79030;DHT22;68511;51.146;7.012;2024-02-23T02:24:15;13.80;61.10
79030;DHT22;68511;51.146;7.012;2024-02-23T02:25:15;13.80;61.10
79030;DHT22;68511;51.146;7.012;2024-02-23T02:26:16;13.80;61.10
79030;DHT22;68511;51.146;7.012;2024-02-23T02:27:16;13.80;61.10
79030;DHT22;68511;51.146;7.012;2024-02-23T02:28:17;13.80;61.10
79030;DHT22;68511;51.146;7.012;2024-02-23T02:29:17;13.80;61.10
79030;DHT22;68511;51.146;7.012;2024-02-23T02:30:18;13.80;61.10
79030;DHT22;68511;51.146;7.012;2024-02-23T02:31:18;13.80;61.10
79030;DHT22;68511;51.146;7.012;2024-02-23T02:32:19;13.80;61.10
79030;DHT22;68511;51.146;7.012;2024-02-23T02:33:19;13.80;61.10
79030;DHT22;68511;51.146;7.012;2024-02-23T02:34:20;13.80;61.10
79030;DHT22;68511;51.146;7.012;2024-02-23T02:35:20;13.80;61.10
79030;DHT22;68511;51.146;7.012;2024-02-23T02:36:21;13.80;61.10
79030;DHT22;68511;51.146;7.012;2024-02-23T02:37:21;13.80;61.10
79030;DHT22;68511;51.146;7.012;2024-02-23T02:38:22;13.80;61.10
79030;DHT22;68511;51.146;7.012;2024-02-23T02:39:22;13.80;61.10
79030;DHT22;68511;51.146;7.012;2024-02-23T02:40:23;13.80;61.10
79030;DHT22;68511;51.146;7.012;2024-02-23T02:41:23;13.80;61.10
79030;DHT22;68511;51.146;7.012;2024-02-23T02:42:27;13.80;61.00
79030;DHT22;68511;51.146;7.012;2024-02-23T02:43:29;13.80;61.10
79030;DHT22;68511;51.146;7.012;2024-02-23T02:44:29;13.80;61.00
79030;DHT22;68511;51.146;7.012;2024-02-23T02:45:31;13.80;61.00
79030;DHT22;68511;51.146;7.012;2024-02-23T02:46:31;13.80;61.00
79030;DHT22;68511;51.146;7.012;2024-02-23T02:47:32;13.80;61.00
79030;DHT22;68511;51.146;7.012;2024-02-23T02:48:32;13.80;61.00
79030;DHT22;68511;51.146;7.012;2024-02-23T02:49:33;13.80;61.00
79030;DHT22;68511;51.146;7.012;2024-02-23T02:50:33;13.80;61.00
79030;DHT22;68511;51.146;7.012;2024-02-23T02:51:34;13.80;61.00
79030;DHT22;68511;51.146;7.012;2024-02-23T02:52:35;13.80;61.00
79030;DHT22;68511;51.146;7.012;2024-02-23T02:53:35;13.80;61.00
79030;DHT22;68511;51.146;7.012;2024-02-23T02:54:36;13.80;61.00
79030;DHT22;68511;51.146;7.012;2024-02-23T02:55:41;13.80;61.00
79030;DHT22;68511;51.146;7.012;2024-02-23T02:56:47;13.80;61.00
79030;DHT22;68511;51.146;7.012;2024-02-23T02:57:47;13.80;61.00
79030;DHT22;68511;51.146;7.012;2024-02-23T02:58:48;13.80;61.00
79030;DHT22;68511;51.146;7.012;2024-02-23T02:59:48;13.80;61.00
79030;DHT22;68511;51.146;7.012;2024-02-23T03:00:50;13.80;61.00
79030;DHT22;68511;51.146;7.012;2024-02-23T03:01:50;13.90;61.10
79030;DHT22;68511;51.146;7.012;2024-02-23T03:02:51;13.80;61.00
79030;DHT22;68511;51.146;7.012;2024-02-23T03:03:51;13.80;61.00
79030;DHT22;68511;51.146;7.012;2024-02-23T03:04:52;13.80;60.90
79030;DHT22;68511;51.146;7.012;2024-02-23T03:05:54;13.80;60.90
79030;DHT22;68511;51.146;7.012;2024-02-23T03:06:54;13.80;60.90
79030;DHT22;68511;51.146;7.012;2024-02-23T03:07:55;13.80;61.00
79030;DHT22;68511;51.146;7.012;2024-02-23T03:08:55;13.80;60.90
79030;DHT22;68511;51.146;7.012;2024-02-23T03:09:56;13.80;60.90
79030;DHT22;68511;51.146;7.012;2024-02-23T03:10:56;13.90;61.00
79030;DHT22;68511;51.146;7.012;2024-02-23T03:11:57;13.80;60.90
79030;DHT22;68511;51.146;7.012;2024-02-23T03:12:57;13.90;61.00
79030;DHT22;68511;51.146;7.012;2024-02-23T03:13:58;13.80;60.80
79030;DHT22;68511;51.146;7.012;2024-02-23T03:14:58;13.90;61.00
79030;DHT22;68511;51.146;7.012;2024-02-23T03:15:59;13.80;60.80
79030;DHT22;68511;51.146;7.012;2024-02-23T03:17:00;13.80;60.80
79030;DHT22;68511;51.146;7.012;2024-02-23T03:18:00;13.80;60.90
79030;DHT22;68511;51.146;7.012;2024-02-23T03:19:01;13.80;60.80
79030;DHT22;68511;51.146;7.012;2024-02-23T03:20:02;13.80;60.80
79030;DHT22;68511;51.146;7.012;2024-02-23T03:21:05;13.80;60.80
79030;DHT22;68511;51.146;7.012;2024-02-23T03:22:07;13.80;60.80
79030;DHT22;68511;51.146;7.012;2024-02-23T03:23:08;13.80;60.80
79030;DHT22;68511;51.146;7.012;2024-02-23T03:24:08;13.80;60.90
79030;DHT22;68511;51.146;7.012;2024-02-23T03:25:08;13.80;60.80
79030;DHT22;68511;51.146;7.012;2024-02-23T03:26:09;13.80;60.80
79030;DHT22;68511;51.146;7.012;2024-02-23T03:27:09;13.80;60.80
79030;DHT22;68511;51.146;7.012;2024-02-23T03:28:10;13.80;60.80
79030;DHT22;68511;51.146;7.012;2024-02-23T03:29:10;13.80;60.90
79030;DHT22;68511;51.146;7.012;2024-02-23T03:30:11;13.80;60.90
79030;DHT22;68511;51.146;7.012;2024-02-23T03:31:11;13.80;61.00
79030;DHT22;68511;51.146;7.012;2024-02-23T03:32:12;13.80;60.90
79030;DHT22;68511;51.146;7.012;2024-02-23T03:33:12;13.80;60.90
79030;DHT22;68511;51.146;7.012;2024-02-23T03:34:13;13.80;61.00
79030;DHT22;68511;51.146;7.012;2024-02-23T03:35:13;13.80;61.00
79030;DHT22;68511;51.146;7.012;2024-02-23T03:36:14;13.80;60.90
79030;DHT22;68511;51.146;7.012;2024-02-23T03:37:14;13.80;61.00
79030;DHT22;68511;51.146;7.012;2024-02-23T03:38:14;13.80;61.00
79030;DHT22;68511;51.146;7.012;2024-02-23T03:39:15;13.80;60.90
79030;DHT22;68511;51.146;7.012;2024-02-23T03:40:15;13.80;61.00
79030;DHT22;68511;51.146;7.012;2024-02-23T03:41:18;13.80;61.00
79030;DHT22;68511;51.146;7.012;2024-02-23T03:42:18;13.80;61.00
79030;DHT22;68511;51.146;7.012;2024-02-23T03:43:19;13.80;60.90
79030;DHT22;68511;51.146;7.012;2024-02-23T03:44:19;13.80;60.90
79030;DHT22;68511;51.146;7.012;2024-02-23T03:45:20;13.80;61.00
79030;DHT22;68511;51.146;7.012;2024-02-23T03:46:20;13.80;61.00
79030;DHT22;68511;51.146;7.012;2024-02-23T03:47:21;13.80;61.00
79030;DHT22;68511;51.146;7.012;2024-02-23T03:48:22;13.80;61.00
79030;DHT22;68511;51.146;7.012;2024-02-23T03:49:22;13.80;60.90
79030;DHT22;68511;51.146;7.012;2024-02-23T03:50:22;13.80;60.80
79030;DHT22;68511;51.146;7.012;2024-02-23T03:51:24;13.80;60.90
79030;DHT22;68511;51.146;7.012;2024-02-23T03:52:25;13.80;60.90
79030;DHT22;68511;51.146;7.012;2024-02-23T03:53:25;13.80;60.90
79030;DHT22;68511;51.146;7.012;2024-02-23T03:54:26;13.80;60.80
79030;DHT22;68511;51.146;7.012;2024-02-23T03:55:26;13.80;60.80
79030;DHT22;68511;51.146;7.012;2024-02-23T03:56:26;13.80;60.80
79030;DHT22;68511;51.146;7.012;2024-02-23T03:57:27;13.80;60.80
79030;DHT22;68511;51.146;7.012;2024-02-23T03:58:27;13.80;60.80
79030;DHT22;68511;51.146;7.012;2024-02-23T03:59:28;13.80;60.80
79030;DHT22;68511;51.146;7.012;2024-02-23T04:00:28;13.80;60.80
79030;DHT22;68511;51.146;7.012;2024-02-23T04:01:29;13.80;60.80
79030;DHT22;68511;51.146;7.012;2024-02-23T04:02:29;13.80;60.80
79030;DHT22;68511;51.146;7.012;2024-02-23T04:03:30;13.80;60.80
79030;DHT22;68511;51.146;7.012;2024-02-23T04:04:30;13.80;60.80
79030;DHT22;68511;51.146;7.012;2024-02-23T04:05:30;13.80;60.80
79030;DHT22;68511;51.146;7.012;2024-02-23T04:06:31;13.80;60.70
79030;DHT22;68511;51.146;7.012;2024-02-23T04:07:32;13.80;60.70
79030;DHT22;68511;51.146;7.012;2024-02-23T04:08:32;13.80;60.70
79030;DHT22;68511;51.146;7.012;2024-02-23T04:09:33;13.80;60.70
79030;DHT22;68511;51.146;7.012;2024-02-23T04:10:34;13.80;60.70
79030;DHT22;68511;51.146;7.012;2024-02-23T04:11:34;13.80;60.70
79030;DHT22;68511;51.146;7.012;2024-02-23T04:12:35;13.80;60.70
79030;DHT22;68511;51.146;7.012;2024-02-23T04:13:35;13.80;60.80
79030;DHT22;68511;51.146;7.012;2024-02-23T04:14:35;13.80;60.80
79030;DHT22;68511;51.146;7.012;2024-02-23T04:15:36;13.80;60.80
79030;DHT22;68511;51.146;7.012;2024-02-23T04:16:37;13.80;60.90
79030;DHT22;68511;51.146;7.012;2024-02-23T04:17:37;13.80;60.80
79030;DHT22;68511;51.146;7.012;2024-02-23T04:18:38;13.80;60.80
79030;DHT22;68511;51.146;7.012;2024-02-23T04:19:40;13.80;60.80
79030;DHT22;68511;51.146;7.012;2024-02-23T04:20:40;13.80;60.80
79030;DHT22;68511;51.146;7.012;2024-02-23T04:21:41;13.80;60.70
79030;DHT22;68511;51.146;7.012;2024-02-23T04:22:42;13.80;60.70
79030;DHT22;68511;51.146;7.012;2024-02-23T04:23:45;13.80;60.70
79030;DHT22;68511;51.146;7.012;2024-02-23T04:24:46;13.80;60.70
79030;DHT22;68511;51.146;7.012;2024-02-23T04:25:46;13.80;60.80
79030;DHT22;68511;51.146;7.012;2024-02-23T04:26:47;13.80;60.70
79030;DHT22;68511;51.146;7.012;2024-02-23T04:27:47;13.80;60.70
79030;DHT22;68511;51.146;7.012;2024-02-23T04:28:47;13.80;60.70
79030;DHT22;68511;51.146;7.012;2024-02-23T04:29:48;13.80;60.70
79030;DHT22;68511;51.146;7.012;2024-02-23T04:30:48;13.80;60.80
79030;DHT22;68511;51.146;7.012;2024-02-23T04:31:49;13.80;60.70
79030;DHT22;68511;51.146;7.012;2024-02-23T04:32:49;13.80;60.70
79030;DHT22;68511;51.146;7.012;2024-02-23T04:33:50;13.80;60.70
79030;DHT22;68511;51.146;7.012;2024-02-23T04:34:50;13.80;60.70
79030;DHT22;68511;51.146;7.012;2024-02-23T04:35:50;13.80;60.70
79030;DHT22;68511;51.146;7.012;2024-02-23T04:36:51;13.80;60.80
79030;DHT22;68511;51.146;7.012;2024-02-23T04:37:51;13.80;60.80
79030;DHT22;68511;51.146;7.012;2024-02-23T04:38:52;13.80;60.80
79030;DHT22;68511;51.146;7.012;2024-02-23T04:39:52;13.80;60.70
79030;DHT22;68511;51.146;7.012;2024-02-23T04:40:53;13.80;60.70
79030;DHT22;68511;51.146;7.012;2024-02-23T04:41:53;13.80;60.80
79030;DHT22;68511;51.146;7.012;2024-02-23T04:42:54;13.80;60.80
79030;DHT22;68511;51.146;7.012;2024-02-23T04:43:55;13.80;60.80
79030;DHT22;68511;51.146;7.012;2024-02-23T04:45:00;13.80;60.80
79030;DHT22;68511;51.146;7.012;2024-02-23T04:46:00;13.80;60.70
79030;DHT22;68511;51.146;7.012;2024-02-23T04:47:01;13.80;60.70
79030;DHT22;68511;51.146;7.012;2024-02-23T04:48:07;13.80;60.80
79030;DHT22;68511;51.146;7.012;2024-02-23T04:49:08;13.80;60.80
79030;DHT22;68511;51.146;7.012;2024-02-23T04:50:08;13.80;60.80
79030;DHT22;68511;51.146;7.012;2024-02-23T04:51:09;13.80;60.80
79030;DHT22;68511;51.146;7.012;2024-02-23T04:52:12;13.80;60.80
79030;DHT22;68511;51.146;7.012;2024-02-23T04:53:13;13.80;60.80
79030;DHT22;68511;51.146;7.012;2024-02-23T04:54:13;13.80;60.80
79030;DHT22;68511;51.146;7.012;2024-02-23T04:55:14;13.80;60.80
79030;DHT22;68511;51.146;7.012;2024-02-23T04:56:14;13.80;60.80
79030;DHT22;68511;51.146;7.012;2024-02-23T04:57:14;13.80;60.80
79030;DHT22;68511;51.146;7.012;2024-02-23T04:58:15;13.80;60.80
79030;DHT22;68511;51.146;7.012;2024-02-23T04:59:15;13.80;60.80
79030;DHT22;68511;51.146;7.012;2024-02-23T05:00:16;13.80;60.80
79030;DHT22;68511;51.146;7.012;2024-02-23T05:01:17;13.80;60.80
79030;DHT22;68511;51.146;7.012;2024-02-23T05:02:18;13.80;60.90
79030;DHT22;68511;51.146;7.012;2024-02-23T05:03:19;13.80;60.90
79030;DHT22;68511;51.146;7.012;2024-02-23T05:04:19;13.80;60.90
79030;DHT22;68511;51.146;7.012;2024-02-23T05:05:19;13.80;60.90
79030;DHT22;68511;51.146;7.012;2024-02-23T05:06:22;13.80;60.90
79030;DHT22;68511;51.146;7.012;2024-02-23T05:07:22;13.80;61.00
79030;DHT22;68511;51.146;7.012;2024-02-23T05:08:23;13.80;61.00
79030;DHT22;68511;51.146;7.012;2024-02-23T05:09:24;13.80;61.00
79030;DHT22;68511;51.146;7.012;2024-02-23T05:10:24;13.80;61.00
79030;DHT22;68511;51.146;7.012;2024-02-23T05:11:25;13.80;60.90
79030;DHT22;68511;51.146;7.012;2024-02-23T05:12:25;13.80;61.00
79030;DHT22;68511;51.146;7.012;2024-02-23T05:13:26;13.80;61.00
79030;DHT22;68511;51.146;7.012;2024-02-23T05:14:26;13.80;60.90
79030;DHT22;68511;51.146;7.012;2024-02-23T05:15:27;13.80;61.00
79030;DHT22;68511;51.146;7.012;2024-02-23T05:16:27;13.80;61.00
79030;DHT22;68511;51.146;7.012;2024-02-23T05:17:28;13.80;60.90
79030;DHT22;68511;51.146;7.012;2024-02-23T05:18:29;13.80;61.00
79030;DHT22;68511;51.146;7.012;2024-02-23T05:19:29;13.80;61.00
79030;DHT22;68511;51.146;7.012;2024-02-23T05:20:29;13.80;61.00
79030;DHT22;68511;51.146;7.012;2024-02-23T05:21:30;13.90;61.10
79030;DHT22;68511;51.146;7.012;2024-02-23T05:22:31;13.80;61.00
79030;DHT22;68511;51.146;7.012;2024-02-23T05:23:32;13.80;61.00
79030;DHT22;68511;51.146;7.012;2024-02-23T05:24:32;13.90;61.10
79030;DHT22;68511;51.146;7.012;2024-02-23T05:25:33;13.90;61.10
79030;DHT22;68511;51.146;7.012;2024-02-23T05:26:33;13.80;61.00
79030;DHT22;68511;51.146;7.012;2024-02-23T05:27:33;13.80;61.00
79030;DHT22;68511;51.146;7.012;2024-02-23T05:28:34;13.80;61.00
79030;DHT22;68511;51.146;7.012;2024-02-23T05:29:34;13.90;61.10
79030;DHT22;68511;51.146;7.012;2024-02-23T05:30:35;13.90;61.10
79030;DHT22;68511;51.146;7.012;2024-02-23T05:31:48;13.90;61.10
79030;DHT22;68511;51.146;7.012;2024-02-23T05:32:50;13.80;61.00
79030;DHT22;68511;51.146;7.012;2024-02-23T05:33:50;13.90;61.10
79030;DHT22;68511;51.146;7.012;2024-02-23T05:34:51;13.90;61.10
79030;DHT22;68511;51.146;7.012;2024-02-23T05:35:53;13.90;61.00
79030;DHT22;68511;51.146;7.012;2024-02-23T05:36:53;13.90;61.10
79030;DHT22;68511;51.146;7.012;2024-02-23T05:37:54;13.90;61.10
79030;DHT22;68511;51.146;7.012;2024-02-23T05:38:55;13.80;61.00
79030;DHT22;68511;51.146;7.012;2024-02-23T05:39:55;13.80;61.00
79030;DHT22;68511;51.146;7.012;2024-02-23T05:40:56;13.90;61.00
79030;DHT22;68511;51.146;7.012;2024-02-23T05:41:56;13.90;61.00
79030;DHT22;68511;51.146;7.012;2024-02-23T05:42:59;13.90;61.00
79030;DHT22;68511;51.146;7.012;2024-02-23T05:43:59;13.90;61.00
79030;DHT22;68511;51.146;7.012;2024-02-23T05:45:00;13.90;61.10
79030;DHT22;68511;51.146;7.012;2024-02-23T05:46:00;13.90;61.00
79030;DHT22;68511;51.146;7.012;2024-02-23T05:47:01;13.90;61.00
79030;DHT22;68511;51.146;7.012;2024-02-23T05:48:02;13.90;61.00
79030;DHT22;68511;51.146;7.012;2024-02-23T05:49:02;13.90;61.00
79030;DHT22;68511;51.146;7.012;2024-02-23T05:50:04;13.90;61.70
79030;DHT22;68511;51.146;7.012;2024-02-23T05:51:05;13.90;61.00
79030;DHT22;68511;51.146;7.012;2024-02-23T05:52:06;13.90;61.00
79030;DHT22;68511;51.146;7.012;2024-02-23T05:53:06;13.90;60.90
79030;DHT22;68511;51.146;7.012;2024-02-23T05:54:08;13.90;61.00
79030;DHT22;68511;51.146;7.012;2024-02-23T05:55:08;13.90;60.90
79030;DHT22;68511;51.146;7.012;2024-02-23T05:56:10;13.90;60.90
79030;DHT22;68511;51.146;7.012;2024-02-23T05:57:10;13.90;60.90
79030;DHT22;68511;51.146;7.012;2024-02-23T05:58:11;13.90;60.90
79030;DHT22;68511;51.146;7.012;2024-02-23T05:59:13;13.90;60.80
79030;DHT22;68511;51.146;7.012;2024-02-23T06:00:14;13.90;60.80
79030;DHT22;68511;51.146;7.012;2024-02-23T06:01:16;13.90;60.80
79030;DHT22;68511;51.146;7.012;2024-02-23T06:02:16;13.90;60.80
79030;DHT22;68511;51.146;7.012;2024-02-23T06:03:16;13.90;60.80
79030;DHT22;68511;51.146;7.012;2024-02-23T06:04:18;13.90;60.80
79030;DHT22;68511;51.146;7.012;2024-02-23T06:05:19;13.90;60.80
79030;DHT22;68511;51.146;7.012;2024-02-23T06:06:19;13.90;60.80
79030;DHT22;68511;51.146;7.012;2024-02-23T06:07:19;13.90;60.80
79030;DHT22;68511;51.146;7.012;2024-02-23T06:08:22;13.90;60.80
79030;DHT22;68511;51.146;7.012;2024-02-23T06:09:22;13.90;60.80
79030;DHT22;68511;51.146;7.012;2024-02-23T06:10:23;13.90;60.80
79030;DHT22;68511;51.146;7.012;2024-02-23T06:11:23;13.90;60.80
79030;DHT22;68511;51.146;7.012;2024-02-23T06:12:24;13.90;60.80
79030;DHT22;68511;51.146;7.012;2024-02-23T06:13:26;13.90;60.80
79030;DHT22;68511;51.146;7.012;2024-02-23T06:14:26;13.90;60.80
79030;DHT22;68511;51.146;7.012;2024-02-23T06:15:27;13.90;60.80
79030;DHT22;68511;51.146;7.012;2024-02-23T06:16:27;13.90;60.80
79030;DHT22;68511;51.146;7.012;2024-02-23T06:17:28;13.90;60.80
79030;DHT22;68511;51.146;7.012;2024-02-23T06:18:28;13.90;60.80
79030;DHT22;68511;51.146;7.012;2024-02-23T06:19:29;13.90;60.80
79030;DHT22;68511;51.146;7.012;2024-02-23T06:20:29;13.90;60.80
79030;DHT22;68511;51.146;7.012;2024-02-23T06:21:30;13.90;60.80
79030;DHT22;68511;51.146;7.012;2024-02-23T06:22:30;13.90;60.80
79030;DHT22;68511;51.146;7.012;2024-02-23T06:23:31;13.90;60.70